createdAt,value
2019-04-22T00:02:18.761Z,2.10
2019-04-22T00:04:58.958Z,1.95
2019-04-22T00:07:41.926Z,1.90
2019-04-22T00:10:12.103Z,1.77
2019-04-22T00:12:47.281Z,2.10
2019-04-22T00:15:10.026Z,2.10
2019-04-22T00:17:46.117Z,1.98
2019-04-22T00:20:20.281Z,1.82
2019-04-22T00:22:42.077Z,2.12
2019-04-22T00:25:17.673Z,1.80
2019-04-22T00:27:50.916Z,2.10
2019-04-22T00:30:18.134Z,1.80
2019-04-22T00:32:50.067Z,2.20
2019-04-22T00:35:18.265Z,2.10
2019-04-22T00:37:56.996Z,1.92
2019-04-22T00:40:30.930Z,2.00
2019-04-22T00:42:53.576Z,1.75
2019-04-22T00:45:31.149Z,2.40
2019-04-22T00:47:55.170Z,2.10
2019-04-22T00:50:30.527Z,2.00
2019-04-22T00:53:00.664Z,2.08
2019-04-22T00:55:24.786Z,2.47
2019-04-22T00:57:55.728Z,1.98
2019-04-22T01:00:24.827Z,2.05
2019-04-22T01:03:02.724Z,2.30
2019-04-22T01:05:27.876Z,1.80
2019-04-22T01:07:56.387Z,2.00
2019-04-22T01:12:56.974Z,2.62
2019-04-22T01:15:33.959Z,2.65
2019-04-22T01:17:57.360Z,2.20
2019-04-22T01:20:58.268Z,2.47
2019-04-22T01:23:02.155Z,2.22
2019-04-22T01:25:23.438Z,2.02
2019-04-22T01:27:54.370Z,2.17
2019-04-22T01:30:19.662Z,2.17
2019-04-22T01:32:43.193Z,2.05
2019-04-22T01:35:20.742Z,2.10
2019-04-22T01:37:54.610Z,2.22
2019-04-22T01:40:39.116Z,2.20
2019-04-22T01:43:07.247Z,2.20
2019-04-22T01:45:33.013Z,2.20
2019-04-22T01:48:02.869Z,2.30
2019-04-22T01:50:32.111Z,2.00
2019-04-22T01:53:06.478Z,2.10
2019-04-22T01:55:36.931Z,1.98
2019-04-22T01:57:59.520Z,2.15
2019-04-22T02:00:38.563Z,1.98
2019-04-22T02:03:07.260Z,2.20
2019-04-22T02:05:39.396Z,1.92
2019-04-22T02:08:08.207Z,2.05
2019-04-22T02:10:40.334Z,1.90
2019-04-22T02:13:08.294Z,2.12
2019-04-22T02:15:39.637Z,2.02
2019-04-22T02:18:12.909Z,1.75
2019-04-22T02:20:35.863Z,1.92
2019-04-22T02:26:03.836Z,2.20
2019-04-22T02:28:38.267Z,2.15
2019-04-22T02:31:20.138Z,1.98
2019-04-22T02:46:23.317Z,2.08
2019-04-22T02:51:12.666Z,1.85
2019-04-22T02:59:00.091Z,2.05
2019-04-22T03:01:13.525Z,1.80
2019-04-22T03:03:51.877Z,2.22
2019-04-22T03:06:16.393Z,2.08
2019-04-22T03:08:41.472Z,2.15
2019-04-22T03:11:12.496Z,2.72
2019-04-22T03:13:49.463Z,2.10
2019-04-22T03:18:47.232Z,2.17
2019-04-22T03:21:17.577Z,2.30
2019-04-22T03:23:47.252Z,2.20
2019-04-22T03:26:18.870Z,2.20
2019-04-22T03:28:47.920Z,2.10
2019-04-22T03:39:42.935Z,2.20
2019-04-22T03:44:31.002Z,2.05
2019-04-22T03:47:11.376Z,2.00
2019-04-22T03:59:39.979Z,2.08
2019-04-22T04:04:36.049Z,2.00
2019-04-22T04:09:41.933Z,2.42
2019-04-22T04:11:59.954Z,2.35
2019-04-22T04:14:44.616Z,2.00
2019-04-22T04:17:09.635Z,2.05
2019-04-22T04:21:57.643Z,2.12
2019-04-22T04:24:48.046Z,2.05
2019-04-22T04:29:46.564Z,2.20
2019-04-22T04:32:09.154Z,2.08
2019-04-22T04:34:44.133Z,1.87
2019-04-22T04:37:07.404Z,2.40
2019-04-22T04:42:11.271Z,2.10
2019-04-22T04:44:50.914Z,1.90
2019-04-22T04:54:30.712Z,2.10
2019-04-22T04:57:16.859Z,1.87
2019-04-22T04:59:39.385Z,2.12
2019-04-22T05:04:43.873Z,2.20
2019-04-22T05:12:03.441Z,2.10
2019-04-22T05:14:24.722Z,2.10
2019-04-22T05:16:59.755Z,2.25
2019-04-22T05:19:26.513Z,2.20
2019-04-22T05:24:28.362Z,1.80
2019-04-22T05:26:56.749Z,2.30
2019-04-22T05:29:32.887Z,1.62
2019-04-22T05:31:59.711Z,1.90
2019-04-22T05:34:24.888Z,1.77
2019-04-22T05:36:58.910Z,2.30
2019-04-22T05:39:18.567Z,1.82
2019-04-22T05:41:48.632Z,1.80
2019-04-22T05:44:22.297Z,2.20
2019-04-22T05:46:49.648Z,1.82
2019-04-22T05:51:48.535Z,2.12
2019-04-22T05:54:21.291Z,2.27
2019-04-22T05:56:43.062Z,2.05
2019-04-22T05:59:39.613Z,1.62
2019-04-22T06:04:37.217Z,1.90
2019-04-22T06:06:46.885Z,2.05
2019-04-22T06:09:24.809Z,2.10
2019-04-22T06:11:49.729Z,2.20
2019-04-22T06:14:22.967Z,2.33
2019-04-22T06:16:57.183Z,1.92
2019-04-22T06:21:48.093Z,1.75
2019-04-22T06:24:27.604Z,2.00
2019-04-22T06:34:27.636Z,1.80
2019-04-22T06:36:59.761Z,1.82
2019-04-22T06:39:29.473Z,1.90
2019-04-22T06:41:53.440Z,1.92
2019-04-22T06:44:26.580Z,2.00
2019-04-22T06:46:52.421Z,2.00
2019-04-22T06:52:04.490Z,1.90
2019-04-22T06:54:28.281Z,1.92
2019-04-22T06:56:54.698Z,1.87
2019-04-22T06:59:29.764Z,2.08
2019-04-22T07:02:02.631Z,1.90
2019-04-22T07:04:23.246Z,2.12
2019-04-22T07:09:33.526Z,1.60
2019-04-22T07:11:57.603Z,1.72
2019-04-22T07:14:22.477Z,1.80
2019-04-22T07:16:56.062Z,2.10
2019-04-22T07:19:28.848Z,1.82
2019-04-22T07:21:57.940Z,2.17
2019-04-22T07:27:02.979Z,1.80
2019-04-22T07:29:25.070Z,1.75
2019-04-22T07:32:05.030Z,1.82
2019-04-22T07:34:36.036Z,1.90
2019-04-22T07:37:27.811Z,1.92
2019-04-22T07:39:30.808Z,1.75
2019-04-22T07:41:56.140Z,1.80
2019-04-22T07:44:31.222Z,2.12
2019-04-22T07:47:10.129Z,1.80
2019-04-22T07:49:33.907Z,2.10
2019-04-22T07:51:55.828Z,1.75
2019-04-22T07:54:26.012Z,1.90
2019-04-22T07:57:02.481Z,1.60
2019-04-22T07:59:28.004Z,1.72
2019-04-22T08:01:55.934Z,2.30
2019-04-22T08:07:10.718Z,2.20
2019-04-22T08:09:41.892Z,2.30
2019-04-22T08:11:55.347Z,2.00
2019-04-22T08:14:34.581Z,2.17
2019-04-22T08:17:21.282Z,2.12
2019-04-22T08:19:36.995Z,2.50
2019-04-22T08:22:02.716Z,2.20
2019-04-22T08:24:36.277Z,2.22
2019-04-22T08:27:08.732Z,2.20
2019-04-22T08:29:52.376Z,2.40
2019-04-22T08:31:59.204Z,2.08
2019-04-22T08:34:29.842Z,2.22
2019-04-22T08:37:37.078Z,1.90
2019-04-22T08:39:33.166Z,2.27
2019-04-22T08:42:05.027Z,2.27
2019-04-22T08:44:54.274Z,2.27
2019-04-22T08:47:15.820Z,1.98
2019-04-22T08:49:42.484Z,2.08
2019-04-22T08:52:08.716Z,2.12
2019-04-22T08:54:41.004Z,2.72
2019-04-22T08:57:12.533Z,2.20
2019-04-22T08:59:30.958Z,2.20
2019-04-22T09:02:09.299Z,2.10
2019-04-22T09:04:34.682Z,2.50
2019-04-22T09:07:18.312Z,2.50
2019-04-22T09:09:37.898Z,2.25
2019-04-22T09:12:07.627Z,2.02
2019-04-22T09:14:40.519Z,2.40
2019-04-22T09:17:10.371Z,2.45
2019-04-22T09:19:35.112Z,2.65
2019-04-22T09:22:08.366Z,2.83
2019-04-22T09:24:35.778Z,2.45
2019-04-22T09:27:11.559Z,3.42
2019-04-22T09:29:41.323Z,2.50
2019-04-22T09:32:18.910Z,2.67
2019-04-22T09:37:17.674Z,2.77
2019-04-22T09:39:34.564Z,2.40
2019-04-22T09:42:05.138Z,2.50
2019-04-22T09:44:36.519Z,2.60
2019-04-22T09:47:09.597Z,2.72
2019-04-22T09:49:44.631Z,2.83
2019-04-22T09:52:02.940Z,2.22
2019-04-22T09:57:07.395Z,2.12
2019-04-22T09:59:36.822Z,2.62
2019-04-22T10:02:19.595Z,2.27
2019-04-22T10:04:39.912Z,2.30
2019-04-22T10:07:13.760Z,3.08
2019-04-22T10:10:01.627Z,2.52
2019-04-22T10:12:02.847Z,3.08
2019-04-22T10:14:38.319Z,2.17
2019-04-22T10:17:11.289Z,2.67
2019-04-22T10:19:38.950Z,2.33
2019-04-22T10:22:16.696Z,2.22
2019-04-22T10:24:38.928Z,2.42
2019-04-22T10:27:07.221Z,2.20
2019-04-22T10:29:43.437Z,2.62
2019-04-22T10:32:07.132Z,2.47
2019-04-22T10:34:26.337Z,2.70
2019-04-22T10:36:50.477Z,2.20
2019-04-22T10:39:13.797Z,2.35
2019-04-22T10:41:41.967Z,2.42
2019-04-22T10:44:11.044Z,2.58
2019-04-22T10:46:40.259Z,2.30
2019-04-22T10:49:08.493Z,2.58
2019-04-22T10:51:36.922Z,2.10
2019-04-22T10:54:05.400Z,2.52
2019-04-22T10:56:34.773Z,1.98
2019-04-22T10:59:04.723Z,2.37
2019-04-22T11:01:33.844Z,2.65
2019-04-22T11:04:03.344Z,2.10
2019-04-22T11:06:33.681Z,2.30
2019-04-22T11:09:04.882Z,2.67
2019-04-22T11:11:44.479Z,1.98
2019-04-22T11:14:04.126Z,2.87
2019-04-22T11:16:32.461Z,2.40
2019-04-22T11:19:01.421Z,2.33
2019-04-22T11:21:29.673Z,2.27
2019-04-22T11:23:58.688Z,2.52
2019-04-22T11:26:28.096Z,2.10
2019-04-22T11:28:56.331Z,2.35
2019-04-22T11:31:26.253Z,2.30
2019-04-22T11:33:54.664Z,2.45
2019-04-22T11:36:24.156Z,2.15
2019-04-22T11:38:58.357Z,3.37
2019-04-22T11:41:23.568Z,2.50
2019-04-22T11:43:53.483Z,2.60
2019-04-22T11:46:23.142Z,2.42
2019-04-22T11:48:51.884Z,2.17
2019-04-22T11:51:22.044Z,2.25
2019-04-22T11:53:50.311Z,2.37
2019-04-22T11:56:25.166Z,2.22
2019-04-22T11:58:55.147Z,2.17
2019-04-22T12:01:24.658Z,2.12
2019-04-22T12:03:53.878Z,2.50
2019-04-22T12:06:24.016Z,2.12
2019-04-22T12:08:54.018Z,2.80
2019-04-22T12:11:23.963Z,2.37
2019-04-22T12:13:54.028Z,2.17
2019-04-22T12:16:23.337Z,2.52
2019-04-22T12:18:51.560Z,2.67
2019-04-22T12:21:21.327Z,2.30
2019-04-22T12:23:50.825Z,2.10
2019-04-22T12:26:20.987Z,2.42
2019-04-22T12:28:49.238Z,2.67
2019-04-22T12:31:17.753Z,2.47
2019-04-22T12:33:45.756Z,2.35
2019-04-22T12:36:14.966Z,2.75
2019-04-22T12:38:43.373Z,2.40
2019-04-22T12:41:14.120Z,2.47
2019-04-22T12:43:43.227Z,2.27
2019-04-22T12:46:12.192Z,2.30
2019-04-22T12:48:41.235Z,2.45
2019-04-22T12:51:11.032Z,2.37
2019-04-22T12:53:40.180Z,2.00
2019-04-22T12:56:09.293Z,2.47
2019-04-22T12:58:38.018Z,2.05
2019-04-22T13:01:06.820Z,2.10
2019-04-22T13:03:36.111Z,2.25
2019-04-22T13:06:05.928Z,2.08
2019-04-22T13:08:34.017Z,2.10
2019-04-22T13:11:08.645Z,2.27
2019-04-22T13:13:34.436Z,2.50
2019-04-22T13:16:02.808Z,2.20
2019-04-22T13:18:38.079Z,2.27
2019-04-22T13:21:02.325Z,2.50
2019-04-22T13:23:31.767Z,2.60
2019-04-22T13:26:00.939Z,2.62
2019-04-22T13:28:29.321Z,2.67
2019-04-22T13:31:00.233Z,2.30
2019-04-22T13:33:28.672Z,2.08
2019-04-22T13:35:57.545Z,2.15
2019-04-22T13:38:27.031Z,2.05
2019-04-22T13:41:05.904Z,2.47
2019-04-22T13:43:27.023Z,1.80
2019-04-22T13:45:56.244Z,1.90
2019-04-22T13:48:46.293Z,2.10
2019-04-22T13:51:30.262Z,2.27
2019-04-22T13:54:17.834Z,2.17
2019-04-22T13:56:13.593Z,2.05
2019-04-22T13:58:40.894Z,2.22
2019-04-22T14:01:00.602Z,1.87
2019-04-22T14:03:52.176Z,1.95
2019-04-22T14:06:20.679Z,2.40
2019-04-22T14:08:49.415Z,2.50
2019-04-22T14:11:30.027Z,2.20
2019-04-22T14:13:47.989Z,2.40
2019-04-22T14:16:17.196Z,2.02
2019-04-22T14:18:46.088Z,2.17
2019-04-22T14:21:16.688Z,2.30
2019-04-22T14:23:44.920Z,2.20
2019-04-22T14:26:13.409Z,2.08
2019-04-22T14:28:41.700Z,2.30
2019-04-22T14:31:10.641Z,2.15
2019-04-22T14:33:40.737Z,2.42
2019-04-22T14:36:09.484Z,2.33
2019-04-22T14:38:37.659Z,2.05
2019-04-22T14:41:08.314Z,2.00
2019-04-22T14:44:24.478Z,2.60
2019-04-22T14:46:33.498Z,2.02
2019-04-22T14:48:57.665Z,2.17
2019-04-22T14:51:27.827Z,2.22
2019-04-22T14:53:55.439Z,2.20
2019-04-22T14:56:08.345Z,1.75
2019-04-22T14:58:37.389Z,1.87
2019-04-22T15:01:06.842Z,2.10
2019-04-22T15:03:38.433Z,2.08
2019-04-22T15:06:06.351Z,2.02
2019-04-22T15:08:35.130Z,2.17
2019-04-22T15:11:05.878Z,1.90
2019-04-22T15:13:33.628Z,2.00
2019-04-22T15:16:25.669Z,1.75
2019-04-22T15:19:07.724Z,1.90
2019-04-22T15:21:36.723Z,1.80
2019-04-22T15:24:25.193Z,2.20
2019-04-22T15:26:56.297Z,1.85
2019-04-22T15:29:25.589Z,2.00
2019-04-22T15:31:55.535Z,1.90
2019-04-22T15:34:24.943Z,2.00
2019-04-22T15:36:53.932Z,1.87
2019-04-22T15:39:23.131Z,2.10
2019-04-22T15:42:00.414Z,1.95
2019-04-22T15:44:21.950Z,1.70
2019-04-22T15:46:51.005Z,1.87
2019-04-22T15:49:20.146Z,1.65
2019-04-22T15:51:48.949Z,1.87
2019-04-22T15:54:17.319Z,2.35
2019-04-22T15:56:46.586Z,1.60
2019-04-22T15:59:30.196Z,1.80
2019-04-22T16:01:46.768Z,1.80
2019-04-22T16:04:16.864Z,1.90
2019-04-22T16:06:45.161Z,2.20
2019-04-22T16:09:13.286Z,1.87
2019-04-22T16:11:43.404Z,1.75
2019-04-22T16:14:17.674Z,1.90
2019-04-22T16:16:43.043Z,1.80
2019-04-22T16:19:12.261Z,1.75
2019-04-22T16:21:49.023Z,1.55
2019-04-22T16:24:29.827Z,1.90
2019-04-22T16:27:02.525Z,1.70
2019-04-22T16:29:31.569Z,1.98
2019-04-22T16:32:01.231Z,2.22
2019-04-22T16:34:29.568Z,1.87
2019-04-22T16:36:58.613Z,1.90
2019-04-22T16:39:27.000Z,2.33
2019-04-22T16:41:56.916Z,2.05
2019-04-22T16:44:25.114Z,2.35
2019-04-22T16:46:53.204Z,2.65
2019-04-22T16:49:21.643Z,2.40
2019-04-22T16:51:50.067Z,2.55
2019-04-22T16:54:18.237Z,2.10
2019-04-22T16:56:47.875Z,2.50
2019-04-22T16:59:16.965Z,2.52
2019-04-22T17:02:19.723Z,2.47
2019-04-22T17:05:13.848Z,2.42
2019-04-22T17:07:42.465Z,2.30
2019-04-22T17:10:11.066Z,2.47
2019-04-22T17:12:48.915Z,2.30
2019-04-22T17:15:12.270Z,2.33
2019-04-22T17:17:41.237Z,2.20
2019-04-22T17:20:11.329Z,2.47
2019-04-22T17:22:39.807Z,2.60
2019-04-22T17:25:08.689Z,2.58
2019-04-22T17:27:37.087Z,3.12
2019-04-22T17:30:06.598Z,2.58
2019-04-22T17:32:35.656Z,2.67
2019-04-22T17:35:06.383Z,2.58
2019-04-22T17:37:37.307Z,2.70
2019-04-22T17:40:24.367Z,2.60
2019-04-22T17:42:58.931Z,3.08
2019-04-22T17:45:40.173Z,2.70
2019-04-22T17:48:35.388Z,2.47
2019-04-22T17:51:05.587Z,2.98
2019-04-22T17:53:34.939Z,2.67
2019-04-22T17:56:02.134Z,2.52
2019-04-22T17:58:36.027Z,2.33
2019-04-22T18:01:02.475Z,2.55
2019-04-22T18:03:21.288Z,2.80
2019-04-22T18:05:47.299Z,2.20
2019-04-22T18:08:28.895Z,2.30
2019-04-22T18:10:58.483Z,2.30
2019-04-22T18:13:32.211Z,2.60
2019-04-22T18:16:05.286Z,2.75
2019-04-22T18:18:35.543Z,2.65
2019-04-22T18:20:57.493Z,3.10
2019-04-22T18:23:14.663Z,2.83
2019-04-22T18:26:00.462Z,2.70
2019-04-22T18:28:30.524Z,3.35
2019-04-22T18:30:58.725Z,3.42
2019-04-22T18:33:31.874Z,4.00
2019-04-22T18:36:01.122Z,3.52
2019-04-22T18:38:42.323Z,4.00
2019-04-22T18:40:59.005Z,3.17
2019-04-22T18:43:34.003Z,3.40
2019-04-22T18:46:05.478Z,3.25
2019-04-22T18:48:32.162Z,3.42
2019-04-22T18:51:13.290Z,3.75
2019-04-22T18:54:05.116Z,3.47
2019-04-22T18:56:47.288Z,3.55
2019-04-22T18:59:07.720Z,3.55
2019-04-22T19:01:26.429Z,3.40
2019-04-22T19:04:04.586Z,3.90
2019-04-22T19:06:46.319Z,3.52
2019-04-22T19:09:20.887Z,3.67
2019-04-22T19:11:59.390Z,3.08
2019-04-22T19:14:43.639Z,2.90
2019-04-22T19:16:48.141Z,2.70
2019-04-22T19:19:33.315Z,2.22
2019-04-22T19:21:47.561Z,2.20
2019-04-22T19:24:17.363Z,2.15
2019-04-22T19:29:22.306Z,2.08
2019-04-22T19:31:51.216Z,1.80
2019-04-22T19:34:20.604Z,1.75
2019-04-22T19:36:51.236Z,1.47
2019-04-22T19:39:11.798Z,1.40
2019-04-22T19:41:57.797Z,1.50
2019-04-22T19:44:19.713Z,1.35
2019-04-22T19:47:11.413Z,1.40
2019-04-22T19:52:02.562Z,1.10
2019-04-22T19:54:19.240Z,1.20
2019-04-22T19:56:42.295Z,1.22
2019-04-22T19:59:19.698Z,1.15
2019-04-22T20:02:09.667Z,1.10
2019-04-22T20:04:52.457Z,1.00
2019-04-22T20:07:15.362Z,1.10
2019-04-22T20:09:55.174Z,1.12
2019-04-22T20:12:18.921Z,1.00
2019-04-22T20:14:49.724Z,0.93
2019-04-22T20:17:24.161Z,0.95
2019-04-22T20:19:55.944Z,0.85
2019-04-22T20:22:17.808Z,0.88
2019-04-22T20:24:43.561Z,1.35
2019-04-22T20:27:25.327Z,0.68
2019-04-22T20:29:56.442Z,0.80
2019-04-22T20:32:23.475Z,0.65
2019-04-22T20:34:59.121Z,0.82
2019-04-22T20:37:33.093Z,0.70
2019-04-22T20:39:58.621Z,0.65
2019-04-22T20:42:43.779Z,0.80
2019-04-22T20:44:52.110Z,0.60
2019-04-22T20:47:18.074Z,0.50
2019-04-22T20:49:55.086Z,0.70
2019-04-22T20:54:50.985Z,0.50
2019-04-22T20:57:24.042Z,0.50
2019-04-22T20:59:54.166Z,0.57
2019-04-22T21:02:18.189Z,0.68
2019-04-22T21:04:45.683Z,0.50
2019-04-22T21:07:20.106Z,0.50
2019-04-22T21:09:56.904Z,0.53
2019-04-22T21:12:19.005Z,0.62
2019-04-22T21:15:05.566Z,0.45
2019-04-22T21:17:24.698Z,0.50
2019-04-22T21:20:00.695Z,0.62
2019-04-22T21:22:26.038Z,0.80
2019-04-22T21:24:52.248Z,0.65
2019-04-22T21:27:28.761Z,1.45
2019-04-22T21:29:50.743Z,1.00
2019-04-22T21:32:24.153Z,0.82
2019-04-22T21:35:03.290Z,0.75
2019-04-22T21:37:36.065Z,1.20
2019-04-22T21:39:54.554Z,1.10
2019-04-22T21:42:26.585Z,1.32
2019-04-22T21:44:52.422Z,0.93
2019-04-22T21:47:51.806Z,1.25
2019-04-22T21:50:17.928Z,1.20
2019-04-22T21:52:29.376Z,1.50
2019-04-22T21:55:00.847Z,1.30
2019-04-22T21:57:32.048Z,0.98
2019-04-22T22:00:06.510Z,1.10
2019-04-22T22:02:41.255Z,1.17
2019-04-22T22:05:00.131Z,1.17
2019-04-22T22:07:21.442Z,0.90
2019-04-22T22:10:04.254Z,1.00
2019-04-22T22:12:36.263Z,1.05
2019-04-22T22:15:07.161Z,1.10
2019-04-22T22:17:31.669Z,1.05
2019-04-22T22:20:03.024Z,1.05
2019-04-22T22:22:50.390Z,0.90
2019-04-22T22:25:07.810Z,0.95
2019-04-22T22:27:37.598Z,0.80
2019-04-22T22:30:19.229Z,1.05
2019-04-22T22:32:35.406Z,0.98
2019-04-22T22:35:08.419Z,1.37
2019-04-22T22:37:23.871Z,1.15
2019-04-22T22:39:54.477Z,1.15
2019-04-22T22:42:22.527Z,1.20
2019-04-22T22:44:48.638Z,1.15
2019-04-22T22:47:35.439Z,1.30
2019-04-22T22:50:03.015Z,1.20
2019-04-22T22:55:04.409Z,1.15
2019-04-22T22:57:41.046Z,1.02
2019-04-22T23:00:03.919Z,1.20
2019-04-22T23:02:36.299Z,1.32
2019-04-22T23:05:04.155Z,1.00
2019-04-22T23:07:44.601Z,1.15
2019-04-22T23:10:06.065Z,1.20
2019-04-22T23:12:40.814Z,1.32
2019-04-22T23:15:04.755Z,1.20
2019-04-22T23:17:23.592Z,1.40
2019-04-22T23:19:51.603Z,1.27
2019-04-22T23:22:21.972Z,1.10
2019-04-22T23:25:14.041Z,1.40
2019-04-22T23:27:40.347Z,1.37
2019-04-22T23:30:27.488Z,1.15
2019-04-22T23:33:05.860Z,1.57
2019-04-22T23:35:53.207Z,1.22
2019-04-22T23:38:33.272Z,1.10
2019-04-22T23:41:03.118Z,1.37
2019-04-22T23:43:32.647Z,1.60
2019-04-22T23:46:04.314Z,1.40
2019-04-22T23:48:27.153Z,1.10
2019-04-22T23:51:03.362Z,1.00
2019-04-22T23:56:04.201Z,1.22
